sensor_id;sensor_type;location;lat;lon;timestamp;pressure;altitude;pressure_sealevel;temperature;humidity
21877;BME280;11103;43.788;23.710;2022-08-18T00:04:46;152464.50;;;23.97;99.80
21877;BME280;11103;43.788;23.710;2022-08-18T00:07:18;152439.94;;;23.88;99.10
21877;BME280;11103;43.788;23.710;2022-08-18T00:09:43;152427.00;;;23.83;99.72
21877;BME280;11103;43.788;23.710;2022-08-18T00:14:45;152446.41;;;23.90;95.27
21877;BME280;11103;43.788;23.710;2022-08-18T00:17:12;152470.97;;;24.00;93.61
21877;BME280;11103;43.788;23.710;2022-08-18T00:19:38;152414.06;;;23.78;92.42
21877;BME280;11103;43.788;23.710;2022-08-18T00:22:04;152481.34;;;24.04;91.32
21877;BME280;11103;43.788;23.710;2022-08-18T00:24:29;152464.50;;;23.97;90.98
21877;BME280;11103;43.788;23.710;2022-08-18T00:26:56;152446.41;;;23.90;91.34
21877;BME280;11103;43.788;23.710;2022-08-18T00:29:22;152443.78;;;23.89;91.43
21877;BME280;11103;43.788;23.710;2022-08-18T00:31:48;152417.94;;;23.79;92.21
21877;BME280;11103;43.788;23.710;2022-08-18T00:34:13;152411.47;;;23.77;91.45
21877;BME280;11103;43.788;23.710;2022-08-18T00:36:39;152429.56;;;23.84;93.90
21877;BME280;11103;43.788;23.710;2022-08-18T00:39:05;152414.06;;;23.78;93.93
21877;BME280;11103;43.788;23.710;2022-08-18T00:41:31;152402.41;;;23.73;93.73
21877;BME280;11103;43.788;23.710;2022-08-18T00:43:57;152388.16;;;23.67;94.82
21877;BME280;11103;43.788;23.710;2022-08-18T00:46:31;152388.16;;;23.67;93.49
21877;BME280;11103;43.788;23.710;2022-08-18T00:48:57;152355.84;;;23.55;93.54
21877;BME280;11103;43.788;23.710;2022-08-18T00:51:34;152380.41;;;23.64;93.25
21877;BME280;11103;43.788;23.710;2022-08-18T00:54:08;152383.00;;;23.65;94.52
21877;BME280;11103;43.788;23.710;2022-08-18T00:56:38;152383.00;;;23.65;94.91
21877;BME280;11103;43.788;23.710;2022-08-18T01:01:54;152305.34;;;23.35;97.43
21877;BME280;11103;43.788;23.710;2022-08-18T01:04:30;152353.22;;;23.54;98.18
21877;BME280;11103;43.788;23.710;2022-08-18T01:07:10;152336.44;;;23.47;98.53
21877;BME280;11103;43.788;23.710;2022-08-18T01:09:37;152310.53;;;23.37;100.00
21877;BME280;11103;43.788;23.710;2022-08-18T01:12:03;152313.16;;;23.38;100.00
21877;BME280;11103;43.788;23.710;2022-08-18T01:14:28;152285.94;;;23.28;100.00
21877;BME280;11103;43.788;23.710;2022-08-18T01:16:54;152276.88;;;23.24;100.00
21877;BME280;11103;43.788;23.710;2022-08-18T01:19:39;152247.19;;;23.13;100.00
21877;BME280;11103;43.788;23.710;2022-08-18T01:22:31;152248.44;;;23.13;100.00
21877;BME280;11103;43.788;23.710;2022-08-18T01:25:00;152201.91;;;22.95;100.00
21877;BME280;11103;43.788;23.710;2022-08-18T01:27:45;152231.66;;;23.06;100.00
21877;BME280;11103;43.788;23.710;2022-08-18T01:30:14;152225.19;;;23.04;100.00
21877;BME280;11103;43.788;23.710;2022-08-18T01:32:41;152181.22;;;22.87;100.00
21877;BME280;11103;43.788;23.710;2022-08-18T01:35:11;152182.50;;;22.87;100.00
21877;BME280;11103;43.788;23.710;2022-08-18T01:37:37;152121.78;;;22.64;100.00
21877;BME280;11103;43.788;23.710;2022-08-18T01:40:08;152151.47;;;22.75;100.00
21877;BME280;11103;43.788;23.710;2022-08-18T01:42:35;152142.44;;;22.72;100.00
21877;BME280;11103;43.788;23.710;2022-08-18T01:45:03;152132.09;;;22.68;100.00
21877;BME280;11103;43.788;23.710;2022-08-18T01:47:32;152110.06;;;22.59;100.00
21877;BME280;11103;43.788;23.710;2022-08-18T01:49:59;152094.53;;;22.53;100.00
21877;BME280;11103;43.788;23.710;2022-08-18T01:52:25;152088.06;;;22.50;100.00
21877;BME280;11103;43.788;23.710;2022-08-18T01:54:54;152079.06;;;22.47;100.00
21877;BME280;11103;43.788;23.710;2022-08-18T01:57:22;152038.97;;;22.31;100.00
21877;BME280;11103;43.788;23.710;2022-08-18T01:59:49;152026.03;;;22.26;100.00
21877;BME280;11103;43.788;23.710;2022-08-18T02:02:19;152032.50;;;22.29;100.00
21877;BME280;11103;43.788;23.710;2022-08-18T02:04:47;152005.38;;;22.18;100.00
21877;BME280;11103;43.788;23.710;2022-08-18T02:07:13;152014.44;;;22.22;100.00
21877;BME280;11103;43.788;23.710;2022-08-18T02:09:40;152001.50;;;22.17;100.00
21877;BME280;11103;43.788;23.710;2022-08-18T02:12:06;151978.25;;;22.08;100.00
21877;BME280;11103;43.788;23.710;2022-08-18T02:14:34;151948.50;;;21.96;100.00
21877;BME280;11103;43.788;23.710;2022-08-18T02:17:01;151964.03;;;22.02;100.00
21877;BME280;11103;43.788;23.710;2022-08-18T02:19:26;151940.81;;;21.93;100.00
21877;BME280;11103;43.788;23.710;2022-08-18T02:21:55;151948.50;;;21.96;100.00
21877;BME280;11103;43.788;23.710;2022-08-18T02:24:20;151936.91;;;21.91;100.00
21877;BME280;11103;43.788;23.710;2022-08-18T02:26:45;151927.84;;;21.88;100.00
21877;BME280;11103;43.788;23.710;2022-08-18T02:29:11;151922.63;;;21.86;100.00
21877;BME280;11103;43.788;23.710;2022-08-18T02:31:37;151922.63;;;21.86;100.00
21877;BME280;11103;43.788;23.710;2022-08-18T02:34:02;151868.41;;;21.65;100.00
21877;BME280;11103;43.788;23.710;2022-08-18T02:36:27;151908.44;;;21.80;100.00
21877;BME280;11103;43.788;23.710;2022-08-18T02:38:53;151899.38;;;21.77;100.00
21877;BME280;11103;43.788;23.710;2022-08-18T02:41:19;151873.56;;;21.67;100.00
21877;BME280;11103;43.788;23.710;2022-08-18T02:43:45;151880.00;;;21.69;100.00
21877;BME280;11103;43.788;23.710;2022-08-18T02:46:13;151877.47;;;21.68;100.00
21877;BME280;11103;43.788;23.710;2022-08-18T02:48:39;151878.69;;;21.69;100.00
21877;BME280;11103;43.788;23.710;2022-08-18T02:51:10;151836.13;;;21.52;100.00
21877;BME280;11103;43.788;23.710;2022-08-18T02:53:39;151793.50;;;21.35;100.00
21877;BME280;11103;43.788;23.710;2022-08-18T02:56:13;151858.03;;;21.61;100.00
21877;BME280;11103;43.788;23.710;2022-08-18T02:58:46;151852.88;;;21.59;100.00
21877;BME280;11103;43.788;23.710;2022-08-18T03:01:12;151819.31;;;21.46;100.00
21877;BME280;11103;43.788;23.710;2022-08-18T03:03:37;151837.38;;;21.53;100.00
21877;BME280;11103;43.788;23.710;2022-08-18T03:06:03;151836.13;;;21.52;100.00
21877;BME280;11103;43.788;23.710;2022-08-18T03:08:29;151816.72;;;21.45;100.00
21877;BME280;11103;43.788;23.710;2022-08-18T03:10:54;151802.50;;;21.39;100.00
21877;BME280;11103;43.788;23.710;2022-08-18T03:13:20;151825.78;;;21.48;100.00
21877;BME280;11103;43.788;23.710;2022-08-18T03:15:46;151803.81;;;21.40;100.00
21877;BME280;11103;43.788;23.710;2022-08-18T03:18:12;151767.63;;;21.25;100.00
21877;BME280;11103;43.788;23.710;2022-08-18T03:20:39;151790.91;;;21.34;100.00
21877;BME280;11103;43.788;23.710;2022-08-18T03:23:05;151819.31;;;21.46;100.00
21877;BME280;11103;43.788;23.710;2022-08-18T03:25:30;151775.41;;;21.28;100.00
21877;BME280;11103;43.788;23.710;2022-08-18T03:27:56;151811.56;;;21.43;100.00
21877;BME280;11103;43.788;23.710;2022-08-18T03:30:22;151811.56;;;21.43;100.00
21877;BME280;11103;43.788;23.710;2022-08-18T03:32:49;151780.59;;;21.30;100.00
21877;BME280;11103;43.788;23.710;2022-08-18T03:35:15;151796.06;;;21.36;100.00
21877;BME280;11103;43.788;23.710;2022-08-18T03:37:41;151825.78;;;21.48;100.00
21877;BME280;11103;43.788;23.710;2022-08-18T03:40:07;151827.06;;;21.49;100.00
21877;BME280;11103;43.788;23.710;2022-08-18T03:42:35;151807.72;;;21.41;100.00
21877;BME280;11103;43.788;23.710;2022-08-18T03:45:00;151824.47;;;21.48;100.00
21877;BME280;11103;43.788;23.710;2022-08-18T03:47:26;151828.38;;;21.49;100.00
21877;BME280;11103;43.788;23.710;2022-08-18T03:49:52;151821.91;;;21.47;100.00
21877;BME280;11103;43.788;23.710;2022-08-18T03:52:18;151812.84;;;21.43;100.00
21877;BME280;11103;43.788;23.710;2022-08-18T03:54:43;151810.25;;;21.42;100.00
21877;BME280;11103;43.788;23.710;2022-08-18T03:57:12;151788.31;;;21.33;100.00
21877;BME280;11103;43.788;23.710;2022-08-18T03:59:38;151761.19;;;21.23;100.00
21877;BME280;11103;43.788;23.710;2022-08-18T04:02:06;151812.84;;;21.43;100.00
21877;BME280;11103;43.788;23.710;2022-08-18T04:04:32;151824.47;;;21.48;100.00
21877;BME280;11103;43.788;23.710;2022-08-18T04:07:05;151834.81;;;21.52;100.00
21877;BME280;11103;43.788;23.710;2022-08-18T04:09:35;151849.03;;;21.57;100.00
21877;BME280;11103;43.788;23.710;2022-08-18T04:12:09;151865.78;;;21.64;100.00
21877;BME280;11103;43.788;23.710;2022-08-18T04:14:41;151871.00;;;21.66;100.00
21877;BME280;11103;43.788;23.710;2022-08-18T04:17:07;151872.25;;;21.66;100.00
21877;BME280;11103;43.788;23.710;2022-08-18T04:19:33;151876.16;;;21.68;100.00
21877;BME280;11103;43.788;23.710;2022-08-18T04:22:01;151886.47;;;21.72;100.00
21877;BME280;11103;43.788;23.710;2022-08-18T04:24:31;151912.34;;;21.82;100.00
21877;BME280;11103;43.788;23.710;2022-08-18T04:26:57;151871.00;;;21.66;100.00
21877;BME280;11103;43.788;23.710;2022-08-18T04:29:23;151940.81;;;21.93;100.00
21877;BME280;11103;43.788;23.710;2022-08-18T04:31:50;151903.28;;;21.78;100.00
21877;BME280;11103;43.788;23.710;2022-08-18T04:34:17;151962.72;;;22.02;100.00
21877;BME280;11103;43.788;23.710;2022-08-18T04:36:44;151979.53;;;22.08;100.00
21877;BME280;11103;43.788;23.710;2022-08-18T04:39:11;151992.47;;;22.13;100.00
21877;BME280;11103;43.788;23.710;2022-08-18T04:41:39;152000.22;;;22.16;100.00
21877;BME280;11103;43.788;23.710;2022-08-18T04:44:07;151993.75;;;22.14;100.00
21877;BME280;11103;43.788;23.710;2022-08-18T04:46:45;152036.41;;;22.30;100.00
21877;BME280;11103;43.788;23.710;2022-08-18T04:49:12;152044.16;;;22.33;100.00
21877;BME280;11103;43.788;23.710;2022-08-18T04:51:46;152060.94;;;22.40;100.00
21877;BME280;11103;43.788;23.710;2022-08-18T04:54:37;152085.53;;;22.49;100.00
21877;BME280;11103;43.788;23.710;2022-08-18T04:57:14;152111.34;;;22.60;100.00
21877;BME280;11103;43.788;23.710;2022-08-18T04:59:42;152185.06;;;22.88;100.00
21877;BME280;11103;43.788;23.710;2022-08-18T05:02:10;152231.66;;;23.06;100.00
21877;BME280;11103;43.788;23.710;2022-08-18T05:04:38;152258.78;;;23.17;100.00
21877;BME280;11103;43.788;23.710;2022-08-18T05:07:09;152362.31;;;23.57;100.00
21877;BME280;11103;43.788;23.710;2022-08-18T05:09:36;152507.25;;;24.14;98.49
21877;BME280;11103;43.788;23.710;2022-08-18T05:12:04;152693.72;;;24.87;91.84
21877;BME280;11103;43.788;23.710;2022-08-18T05:14:30;152898.38;;;25.66;84.15
21877;BME280;11103;43.788;23.710;2022-08-18T05:17:00;153139.50;;;26.60;76.55
21877;BME280;11103;43.788;23.710;2022-08-18T05:19:26;153448.28;;;27.80;68.91
21877;BME280;11103;43.788;23.710;2022-08-18T05:21:53;153598.84;;;28.39;65.86
21877;BME280;11103;43.788;23.710;2022-08-18T05:24:20;153731.31;;;28.90;63.56
21877;BME280;11103;43.788;23.710;2022-08-18T05:26:50;153845.69;;;29.34;61.25
21877;BME280;11103;43.788;23.710;2022-08-18T05:29:17;153921.00;;;29.64;61.10
21877;BME280;11103;43.788;23.710;2022-08-18T05:31:44;153988.59;;;29.90;58.93
21877;BME280;11103;43.788;23.710;2022-08-18T05:34:10;153891.13;;;29.52;60.52
21877;BME280;11103;43.788;23.710;2022-08-18T05:39:35;153680.69;;;28.70;68.79
21877;BME280;11103;43.788;23.710;2022-08-18T05:42:14;153598.84;;;28.39;70.17
21877;BME280;11103;43.788;23.710;2022-08-18T05:44:47;153545.66;;;28.18;73.66
21877;BME280;11103;43.788;23.710;2022-08-18T05:47:14;153515.78;;;28.06;72.58
21877;BME280;11103;43.788;23.710;2022-08-18T05:49:43;153482.03;;;27.93;74.90
21877;BME280;11103;43.788;23.710;2022-08-18T05:52:14;153404.16;;;27.63;74.33
21877;BME280;11103;43.788;23.710;2022-08-18T05:54:47;153418.44;;;27.68;75.52
21877;BME280;11103;43.788;23.710;2022-08-18T05:57:39;153427.53;;;27.72;78.71
21877;BME280;11103;43.788;23.710;2022-08-18T06:00:07;153436.56;;;27.75;75.62
21877;BME280;11103;43.788;23.710;2022-08-18T06:02:44;153439.19;;;27.76;75.50
21877;BME280;11103;43.788;23.710;2022-08-18T06:05:18;153435.28;;;27.75;74.22
21877;BME280;11103;43.788;23.710;2022-08-18T06:07:58;153443.06;;;27.78;72.85
21877;BME280;11103;43.788;23.710;2022-08-18T06:10:25;153406.78;;;27.64;72.97
21877;BME280;11103;43.788;23.710;2022-08-18T06:12:59;153414.50;;;27.67;70.93
21877;BME280;11103;43.788;23.710;2022-08-18T06:15:53;153424.91;;;27.71;73.10
21877;BME280;11103;43.788;23.710;2022-08-18T06:18:36;153443.06;;;27.78;72.54
21877;BME280;11103;43.788;23.710;2022-08-18T06:21:34;153450.84;;;27.81;71.18
21877;BME280;11103;43.788;23.710;2022-08-18T06:35:01;153479.41;;;27.92;69.04
21877;BME280;11103;43.788;23.710;2022-08-18T06:40:46;153508.00;;;28.03;68.28
21877;BME280;11103;43.788;23.710;2022-08-18T06:43:13;153544.34;;;28.17;67.16
21877;BME280;11103;43.788;23.710;2022-08-18T06:45:40;153566.44;;;28.26;67.67
21877;BME280;11103;43.788;23.710;2022-08-18T06:49:09;153588.50;;;28.34;66.80
21877;BME280;11103;43.788;23.710;2022-08-18T06:51:18;153631.28;;;28.51;68.38
21877;BME280;11103;43.788;23.710;2022-08-18T06:53:58;153661.22;;;28.63;64.79
21877;BME280;11103;43.788;23.710;2022-08-18T06:59:24;153700.19;;;28.78;63.46
21877;BME280;11103;43.788;23.710;2022-08-18T07:01:57;153706.69;;;28.80;62.47
21877;BME280;11103;43.788;23.710;2022-08-18T07:04:38;153753.41;;;28.99;59.52
21877;BME280;11103;43.788;23.710;2022-08-18T07:07:31;153788.47;;;29.12;59.68
21877;BME280;11103;43.788;23.710;2022-08-18T07:09:58;153809.25;;;29.20;59.91
21877;BME280;11103;43.788;23.710;2022-08-18T07:12:26;153856.03;;;29.38;57.71
21877;BME280;11103;43.788;23.710;2022-08-18T07:14:56;153895.03;;;29.54;55.88
21877;BME280;11103;43.788;23.710;2022-08-18T07:17:31;153922.31;;;29.64;55.77
21877;BME280;11103;43.788;23.710;2022-08-18T07:20:17;153921.00;;;29.64;54.39
21877;BME280;11103;43.788;23.710;2022-08-18T07:22:53;153957.41;;;29.78;53.36
21877;BME280;11103;43.788;23.710;2022-08-18T07:25:23;153966.56;;;29.81;54.23
21877;BME280;11103;43.788;23.710;2022-08-18T07:27:49;153967.81;;;29.82;52.76
21877;BME280;11103;43.788;23.710;2022-08-18T07:32:55;153996.41;;;29.93;53.71
21877;BME280;11103;43.788;23.710;2022-08-18T07:36:14;154049.72;;;30.14;54.38
21877;BME280;11103;43.788;23.710;2022-08-18T07:41:55;154105.63;;;30.35;53.34
21877;BME280;11103;43.788;23.710;2022-08-18T07:47:22;154129.03;;;30.44;52.96
21877;BME280;11103;43.788;23.710;2022-08-18T07:49:50;154147.25;;;30.51;52.79
21877;BME280;11103;43.788;23.710;2022-08-18T07:52:31;154196.66;;;30.71;53.56
21877;BME280;11103;43.788;23.710;2022-08-18T08:00:53;154282.47;;;31.04;51.18
21877;BME280;11103;43.788;23.710;2022-08-18T08:03:49;154292.91;;;31.08;50.54
21877;BME280;11103;43.788;23.710;2022-08-18T08:14:08;154397.00;;;31.48;49.27
21877;BME280;11103;43.788;23.710;2022-08-18T08:20:33;154506.31;;;31.91;47.39
21877;BME280;11103;43.788;23.710;2022-08-18T08:25:55;154532.38;;;32.01;46.87
21877;BME280;11103;43.788;23.710;2022-08-18T08:32:10;154592.22;;;32.24;44.58
21877;BME280;11103;43.788;23.710;2022-08-18T08:34:49;154587.03;;;32.22;44.42
21877;BME280;11103;43.788;23.710;2022-08-18T08:37:51;154620.84;;;32.35;44.74
21877;BME280;11103;43.788;23.710;2022-08-18T08:40:44;154623.47;;;32.36;44.83
21877;BME280;11103;43.788;23.710;2022-08-18T08:43:22;154648.19;;;32.46;43.00
21877;BME280;11103;43.788;23.710;2022-08-18T08:49:07;154708.16;;;32.69;44.19
21877;BME280;11103;43.788;23.710;2022-08-18T08:51:57;154764.13;;;32.90;43.41
21877;BME280;11103;43.788;23.710;2022-08-18T08:54:30;154770.63;;;32.93;42.61
21877;BME280;11103;43.788;23.710;2022-08-18T08:57:02;154740.66;;;32.81;42.15
21877;BME280;11103;43.788;23.710;2022-08-18T08:59:29;154741.97;;;32.82;41.50
21877;BME280;11103;43.788;23.710;2022-08-18T09:10:51;154852.69;;;33.25;41.62
21877;BME280;11103;43.788;23.710;2022-08-18T09:24:49;154917.84;;;33.50;41.77
21877;BME280;11103;43.788;23.710;2022-08-18T09:30:04;154996.06;;;33.80;39.57
21877;BME280;11103;43.788;23.710;2022-08-18T09:33:08;154998.63;;;33.81;40.61
21877;BME280;11103;43.788;23.710;2022-08-18T09:35:53;155058.59;;;34.04;38.98
21877;BME280;11103;43.788;23.710;2022-08-18T09:38:25;155048.13;;;34.00;40.24
21877;BME280;11103;43.788;23.710;2022-08-18T09:41:17;155041.63;;;33.98;39.55
21877;BME280;11103;43.788;23.710;2022-08-18T09:44:06;155108.16;;;34.24;39.38
21877;BME280;11103;43.788;23.710;2022-08-18T09:51:56;155144.66;;;34.38;39.38
21877;BME280;11103;43.788;23.710;2022-08-18T09:54:30;155089.88;;;34.17;38.98
21877;BME280;11103;43.788;23.710;2022-08-18T09:57:19;155134.22;;;34.34;37.48
21877;BME280;11103;43.788;23.710;2022-08-18T10:02:11;155178.53;;;34.51;36.99
21877;BME280;11103;43.788;23.710;2022-08-18T10:04:38;155190.25;;;34.55;37.85
21877;BME280;11103;43.788;23.710;2022-08-18T10:13:06;155216.34;;;34.65;37.33
21877;BME280;11103;43.788;23.710;2022-08-18T10:15:45;155259.38;;;34.82;36.14
21877;BME280;11103;43.788;23.710;2022-08-18T10:21:18;155235.94;;;34.73;34.66
21877;BME280;11103;43.788;23.710;2022-08-18T10:23:52;155353.31;;;35.18;35.82
21877;BME280;11103;43.788;23.710;2022-08-18T10:29:03;155430.25;;;35.48;34.35
21877;BME280;11103;43.788;23.710;2022-08-18T10:31:32;155410.69;;;35.41;32.94
21877;BME280;11103;43.788;23.710;2022-08-18T10:37:04;155481.19;;;35.68;35.54
21877;BME280;11103;43.788;23.710;2022-08-18T10:44:54;155533.31;;;35.88;33.13
21877;BME280;11103;43.788;23.710;2022-08-18T10:47:27;155541.16;;;35.91;33.34
21877;BME280;11103;43.788;23.710;2022-08-18T10:49:54;155567.28;;;36.01;34.65
21877;BME280;11103;43.788;23.710;2022-08-18T10:52:39;155575.13;;;36.04;34.46
21877;BME280;11103;43.788;23.710;2022-08-18T11:00:09;155627.31;;;36.24;32.05
21877;BME280;11103;43.788;23.710;2022-08-18T11:05:26;155572.53;;;36.03;31.77
21877;BME280;11103;43.788;23.710;2022-08-18T11:07:59;155626.00;;;36.24;32.81
21877;BME280;11103;43.788;23.710;2022-08-18T11:10:41;155687.34;;;36.48;32.03
21877;BME280;11103;43.788;23.710;2022-08-18T11:13:50;155697.84;;;36.52;32.00
21877;BME280;11103;43.788;23.710;2022-08-18T11:19:08;155770.94;;;36.80;32.94
21877;BME280;11103;43.788;23.710;2022-08-18T11:21:46;155804.88;;;36.93;28.62
21877;BME280;11103;43.788;23.710;2022-08-18T11:29:16;155827.13;;;37.02;29.16
21877;BME280;11103;43.788;23.710;2022-08-18T11:31:43;155844.06;;;37.08;29.55
21877;BME280;11103;43.788;23.710;2022-08-18T11:34:17;155798.34;;;36.90;30.88
21877;BME280;11103;43.788;23.710;2022-08-18T11:37:01;155883.25;;;37.23;31.58
21877;BME280;11103;43.788;23.710;2022-08-18T11:39:28;155802.25;;;36.92;28.92
21877;BME280;11103;43.788;23.710;2022-08-18T11:41:55;155840.19;;;37.07;30.73
21877;BME280;11103;43.788;23.710;2022-08-18T11:44:27;155825.81;;;37.01;31.13
21877;BME280;11103;43.788;23.710;2022-08-18T11:47:08;155867.59;;;37.17;29.35
21877;BME280;11103;43.788;23.710;2022-08-18T11:49:35;155845.38;;;37.09;28.31
21877;BME280;11103;43.788;23.710;2022-08-18T11:52:22;155878.00;;;37.21;34.22
21877;BME280;11103;43.788;23.710;2022-08-18T11:54:50;155901.53;;;37.30;29.72
21877;BME280;11103;43.788;23.710;2022-08-18T12:03:04;155987.75;;;37.64;27.40
21877;BME280;11103;43.788;23.710;2022-08-18T12:05:41;155987.75;;;37.64;28.15
21877;BME280;11103;43.788;23.710;2022-08-18T12:08:27;156002.13;;;37.69;27.89
21877;BME280;11103;43.788;23.710;2022-08-18T12:13:30;155974.72;;;37.59;28.25
21877;BME280;11103;43.788;23.710;2022-08-18T12:16:10;155979.94;;;37.61;28.44
21877;BME280;11103;43.788;23.710;2022-08-18T12:18:37;155965.56;;;37.55;27.54
21877;BME280;11103;43.788;23.710;2022-08-18T12:21:02;155975.97;;;37.59;28.51
21877;BME280;11103;43.788;23.710;2022-08-18T12:23:27;155948.56;;;37.48;30.64
21877;BME280;11103;43.788;23.710;2022-08-18T12:25:53;155956.41;;;37.51;27.29
21877;BME280;11103;43.788;23.710;2022-08-18T12:28:19;155936.81;;;37.44;27.99
21877;BME280;11103;43.788;23.710;2022-08-18T12:30:45;156011.25;;;37.73;28.92
21877;BME280;11103;43.788;23.710;2022-08-18T12:33:11;156029.56;;;37.80;28.02
21877;BME280;11103;43.788;23.710;2022-08-18T12:35:36;156100.13;;;38.07;30.96
21877;BME280;11103;43.788;23.710;2022-08-18T12:38:02;156126.25;;;38.17;28.56
21877;BME280;11103;43.788;23.710;2022-08-18T12:40:27;156161.53;;;38.31;31.86
21877;BME280;11103;43.788;23.710;2022-08-18T12:42:53;156230.81;;;38.57;28.91
21877;BME280;11103;43.788;23.710;2022-08-18T12:45:19;156313.22;;;38.89;28.35
21877;BME280;11103;43.788;23.710;2022-08-18T12:47:44;156338.03;;;38.99;30.06
21877;BME280;11103;43.788;23.710;2022-08-18T12:50:10;156338.03;;;38.99;28.72
21877;BME280;11103;43.788;23.710;2022-08-18T12:52:47;156433.47;;;39.36;28.19
21877;BME280;11103;43.788;23.710;2022-08-18T12:55:13;156453.13;;;39.43;25.57
21877;BME280;11103;43.788;23.710;2022-08-18T12:57:38;156426.94;;;39.33;26.80
21877;BME280;11103;43.788;23.710;2022-08-18T13:00:05;156454.44;;;39.44;25.46
21877;BME280;11103;43.788;23.710;2022-08-18T13:02:32;156544.69;;;39.78;25.63
21877;BME280;11103;43.788;23.710;2022-08-18T13:04:58;156570.81;;;39.89;25.30
21877;BME280;11103;43.788;23.710;2022-08-18T13:07:23;156666.31;;;40.25;24.23
21877;BME280;11103;43.788;23.710;2022-08-18T13:09:49;156705.59;;;40.40;23.82
21877;BME280;11103;43.788;23.710;2022-08-18T13:12:15;156657.19;;;40.22;25.47
21877;BME280;11103;43.788;23.710;2022-08-18T13:14:47;156667.63;;;40.26;25.23
21877;BME280;11103;43.788;23.710;2022-08-18T13:17:14;156684.66;;;40.32;24.71
21877;BME280;11103;43.788;23.710;2022-08-18T13:19:39;156702.94;;;40.39;25.66
21877;BME280;11103;43.788;23.710;2022-08-18T13:22:06;156714.75;;;40.44;25.53
21877;BME280;11103;43.788;23.710;2022-08-18T13:24:31;156850.88;;;40.96;23.52
21877;BME280;11103;43.788;23.710;2022-08-18T13:26:57;156911.09;;;41.20;23.46
21877;BME280;11103;43.788;23.710;2022-08-18T13:29:22;156955.59;;;41.37;23.14
21877;BME280;11103;43.788;23.710;2022-08-18T13:31:48;156939.88;;;41.31;22.37
21877;BME280;11103;43.788;23.710;2022-08-18T13:34:16;156924.16;;;41.25;21.12
21877;BME280;11103;43.788;23.710;2022-08-18T13:36:42;156854.81;;;40.98;22.83
21877;BME280;11103;43.788;23.710;2022-08-18T13:39:14;156746.16;;;40.56;22.87
21877;BME280;11103;43.788;23.710;2022-08-18T13:41:41;156998.78;;;41.53;20.55
21877;BME280;11103;43.788;23.710;2022-08-18T13:44:08;156958.25;;;41.38;21.13
21877;BME280;11103;43.788;23.710;2022-08-18T13:46:37;157018.47;;;41.61;22.48
21877;BME280;11103;43.788;23.710;2022-08-18T13:49:21;157141.53;;;42.08;21.92
21877;BME280;11103;43.788;23.710;2022-08-18T13:51:48;157290.94;;;42.66;21.43
21877;BME280;11103;43.788;23.710;2022-08-18T13:54:22;157317.09;;;42.76;20.40
21877;BME280;11103;43.788;23.710;2022-08-18T13:56:48;157152.03;;;42.12;21.16
21877;BME280;11103;43.788;23.710;2022-08-18T13:59:14;157117.97;;;41.99;22.60
21877;BME280;11103;43.788;23.710;2022-08-18T14:01:50;157182.16;;;42.24;21.73
21877;BME280;11103;43.788;23.710;2022-08-18T14:04:16;157089.19;;;41.88;21.43
21877;BME280;11103;43.788;23.710;2022-08-18T14:06:42;157188.72;;;42.27;22.42
21877;BME280;11103;43.788;23.710;2022-08-18T14:09:08;157214.94;;;42.37;23.88
21877;BME280;11103;43.788;23.710;2022-08-18T14:11:36;157281.75;;;42.62;23.74
21877;BME280;11103;43.788;23.710;2022-08-18T14:14:02;157356.44;;;42.91;21.48
21877;BME280;11103;43.788;23.710;2022-08-18T14:16:29;157343.34;;;42.86;21.00
21877;BME280;11103;43.788;23.710;2022-08-18T14:18:55;157339.38;;;42.85;22.12
21877;BME280;11103;43.788;23.710;2022-08-18T14:21:44;157373.47;;;42.98;21.65
21877;BME280;11103;43.788;23.710;2022-08-18T14:24:31;157416.72;;;43.14;20.98
21877;BME280;11103;43.788;23.710;2022-08-18T14:27:17;157450.75;;;43.27;20.81
21877;BME280;11103;43.788;23.710;2022-08-18T14:29:43;157376.13;;;42.99;21.10
21877;BME280;11103;43.788;23.710;2022-08-18T14:32:11;157349.88;;;42.89;19.59
21877;BME280;11103;43.788;23.710;2022-08-18T14:34:36;157421.94;;;43.16;22.35
21877;BME280;11103;43.788;23.710;2022-08-18T14:37:02;157461.28;;;43.32;21.48
21877;BME280;11103;43.788;23.710;2022-08-18T14:39:28;157474.41;;;43.37;20.25
21877;BME280;11103;43.788;23.710;2022-08-18T14:41:54;157474.41;;;43.37;21.23
21877;BME280;11103;43.788;23.710;2022-08-18T14:44:23;157487.50;;;43.42;20.22
21877;BME280;11103;43.788;23.710;2022-08-18T14:46:48;157551.72;;;43.66;20.67
21877;BME280;11103;43.788;23.710;2022-08-18T14:49:14;157661.81;;;44.09;19.32
21877;BME280;11103;43.788;23.710;2022-08-18T14:51:40;157605.47;;;43.87;19.58
21877;BME280;11103;43.788;23.710;2022-08-18T14:54:10;157692.03;;;44.20;20.50
21877;BME280;11103;43.788;23.710;2022-08-18T14:56:36;157585.81;;;43.79;20.94
21877;BME280;11103;43.788;23.710;2022-08-18T14:59:01;157574.06;;;43.75;21.15
21877;BME280;11103;43.788;23.710;2022-08-18T15:01:29;157669.75;;;44.12;19.04
21877;BME280;11103;43.788;23.710;2022-08-18T15:03:55;157655.28;;;44.06;19.03
21877;BME280;11103;43.788;23.710;2022-08-18T15:06:21;157652.69;;;44.05;20.15
21877;BME280;11103;43.788;23.710;2022-08-18T15:08:46;157739.25;;;44.38;18.45
21877;BME280;11103;43.788;23.710;2022-08-18T15:11:12;157778.63;;;44.54;18.59
21877;BME280;11103;43.788;23.710;2022-08-18T15:13:41;157741.84;;;44.39;18.34
21877;BME280;11103;43.788;23.710;2022-08-18T15:16:11;157609.44;;;43.89;19.64